Time,TemperatureF,DewpointF,PressureIn,WindDirection,WindDirectionDegrees,WindSpeedMPH,WindSpeedGustMPH,Humidity,HourlyPrecipIn,Conditions,Clouds,dailyrainin,SolarRadiationWatts/m^2,SoftwareType,DateUTC
2013-01-06 00:00:00,24.2,21.2,30.30,NNW,343,0.0,0.0,88,0.00,,,0.00,0,Wunderground v.1.15,2013-01-06 08:00:00,
2013-01-06 00:10:00,24.0,21.2,30.30,NNW,343,0.0,0.0,89,0.00,,,0.00,0,Wunderground v.1.15,2013-01-06 08:10:00,
2013-01-06 00:15:00,24.0,21.2,30.30,NNW,343,0.0,0.0,89,0.00,,,0.00,0,Wunderground v.1.15,2013-01-06 08:15:00,
2013-01-06 00:20:00,23.9,21.1,30.30,NNW,343,0.0,0.0,89,0.00,,,0.00,0,Wunderground v.1.15,2013-01-06 08:20:00,
2013-01-06 00:25:00,24.0,21.2,30.29,NNW,343,0.0,0.0,89,0.00,,,0.00,0,Wunderground v.1.15,2013-01-06 08:25:00,
2013-01-06 00:30:00,24.0,21.2,30.29,NNW,342,0.0,0.0,89,0.00,,,0.00,0,Wunderground v.1.15,2013-01-06 08:30:00,
2013-01-06 00:35:00,23.9,21.1,30.29,NNW,342,0.0,0.0,89,0.00,,,0.00,0,Wunderground v.1.15,2013-01-06 08:35:00,
2013-01-06 00:45:00,23.7,20.9,30.29,NNW,342,0.0,0.0,89,0.00,,,0.00,0,Wunderground v.1.15,2013-01-06 08:45:00,
2013-01-06 00:50:00,23.6,20.8,30.29,NNW,342,0.0,0.0,89,0.00,,,0.00,0,Wunderground v.1.15,2013-01-06 08:50:00,
2013-01-06 00:55:00,23.6,20.8,30.29,NNW,342,0.0,0.0,89,0.00,,,0.00,0,Wunderground v.1.15,2013-01-06 08:55:00,
2013-01-06 01:00:00,23.6,20.8,30.29,NNW,342,0.0,0.0,89,0.00,,,0.00,0,Wunderground v.1.15,2013-01-06 09:00:00,
2013-01-06 01:10:00,23.7,21.2,30.29,NNW,342,0.0,0.0,90,0.00,,,0.00,0,Wunderground v.1.15,2013-01-06 09:10:00,
2013-01-06 01:20:00,23.8,21.3,30.29,NNW,329,0.0,0.0,90,0.00,,,0.00,0,Wunderground v.1.15,2013-01-06 09:20:00,
2013-01-06 01:25:00,23.9,21.4,30.30,NNW,329,0.0,0.0,90,0.00,,,0.00,0,Wunderground v.1.15,2013-01-06 09:25:00,
2013-01-06 01:30:00,23.9,21.4,30.30,NNW,329,0.0,0.0,90,0.00,,,0.00,0,Wunderground v.1.15,2013-01-06 09:30:00,
2013-01-06 01:35:00,24.0,21.5,30.30,NNW,329,0.0,0.0,90,0.00,,,0.00,0,Wunderground v.1.15,2013-01-06 09:35:00,
2013-01-06 01:40:00,24.0,21.5,30.30,NNW,329,0.0,0.0,90,0.00,,,0.00,0,Wunderground v.1.15,2013-01-06 09:40:00,
2013-01-06 01:45:00,24.0,21.5,30.30,NNW,329,0.0,0.0,90,0.00,,,0.00,0,Wunderground v.1.15,2013-01-06 09:45:00,
2013-01-06 01:50:00,24.0,21.5,30.30,NNW,329,0.0,0.0,90,0.00,,,0.00,0,Wunderground v.1.15,2013-01-06 09:50:00,
2013-01-06 01:55:00,24.0,21.5,30.30,NNW,329,0.0,0.0,90,0.00,,,0.00,0,Wunderground v.1.15,2013-01-06 09:55:00,
2013-01-06 02:00:00,24.1,21.6,30.30,NNW,328,0.0,0.0,90,0.00,,,0.00,0,Wunderground v.1.15,2013-01-06 10:00:00,
2013-01-06 02:10:00,24.2,21.7,30.30,NNW,328,0.0,0.0,90,0.00,,,0.00,0,Wunderground v.1.15,2013-01-06 10:10:00,
2013-01-06 02:15:00,24.2,21.4,30.30,NNW,328,0.0,2.0,89,0.00,,,0.00,0,Wunderground v.1.15,2013-01-06 10:15:00,
2013-01-06 02:20:00,24.3,21.8,30.30,NNW,327,1.0,2.0,90,0.00,,,0.00,0,Wunderground v.1.15,2013-01-06 10:20:00,
2013-01-06 02:25:00,24.4,21.9,30.30,NNW,327,2.0,2.0,90,0.00,,,0.00,0,Wunderground v.1.15,2013-01-06 10:25:00,
2013-01-06 02:30:00,24.5,21.7,30.30,NNW,327,1.0,1.0,89,0.00,,,0.00,0,Wunderground v.1.15,2013-01-06 10:30:00,
2013-01-06 02:35:00,24.5,21.7,30.30,NNW,327,1.0,2.0,89,0.00,,,0.00,0,Wunderground v.1.15,2013-01-06 10:35:00,
2013-01-06 02:40:00,24.5,21.7,30.30,NNW,327,1.0,1.0,89,0.00,,,0.00,0,Wunderground v.1.15,2013-01-06 10:40:00,
2013-01-06 02:45:00,24.5,21.7,30.30,NNW,327,1.0,1.0,89,0.00,,,0.00,0,Wunderground v.1.15,2013-01-06 10:45:00,
2013-01-06 02:55:00,24.7,21.9,30.30,NNW,327,1.0,1.0,89,0.00,,,0.00,0,Wunderground v.1.15,2013-01-06 10:55:00,
2013-01-06 03:00:00,24.8,22.0,30.31,NNW,327,1.0,1.0,89,0.00,,,0.00,0,Wunderground v.1.15,2013-01-06 11:00:00,
2013-01-06 03:10:00,25.2,22.4,30.30,NNW,327,1.0,1.0,89,0.00,,,0.00,0,Wunderground v.1.15,2013-01-06 11:10:00,
2013-01-06 03:15:00,25.2,22.4,30.30,NNW,327,1.0,1.0,89,0.00,,,0.00,0,Wunderground v.1.15,2013-01-06 11:15:00,
2013-01-06 03:20:00,25.3,22.2,30.30,NNW,327,1.0,1.0,88,0.00,,,0.00,0,Wunderground v.1.15,2013-01-06 11:20:00,
2013-01-06 03:25:00,25.4,22.3,30.30,NNW,327,1.0,1.0,88,0.00,,,0.00,0,Wunderground v.1.15,2013-01-06 11:25:00,
2013-01-06 03:30:00,25.4,22.3,30.30,NNW,327,1.0,1.0,88,0.00,,,0.00,0,Wunderground v.1.15,2013-01-06 11:30:00,
2013-01-06 03:35:00,25.5,22.7,30.30,NNW,327,1.0,1.0,89,0.00,,,0.00,0,Wunderground v.1.15,2013-01-06 11:35:00,
2013-01-06 03:40:00,25.6,22.8,30.30,NNW,327,1.0,1.0,89,0.00,,,0.00,0,Wunderground v.1.15,2013-01-06 11:40:00,
2013-01-06 03:45:00,25.6,22.8,30.30,NNW,327,0.0,1.0,89,0.00,,,0.00,0,Wunderground v.1.15,2013-01-06 11:45:00,
2013-01-06 03:50:00,25.7,22.9,30.30,NNW,327,1.0,1.0,89,0.00,,,0.00,0,Wunderground v.1.15,2013-01-06 11:50:00,
2013-01-06 04:00:00,26.0,23.2,30.31,NNW,327,1.0,1.0,89,0.00,,,0.00,0,Wunderground v.1.15,2013-01-06 12:00:00,
2013-01-06 04:10:00,26.1,23.3,30.31,NNW,327,1.0,2.0,89,0.00,,,0.00,0,Wunderground v.1.15,2013-01-06 12:10:00,
2013-01-06 04:15:00,26.2,23.4,30.31,NNW,327,2.0,2.0,89,0.00,,,0.00,0,Wunderground v.1.15,2013-01-06 12:15:00,
2013-01-06 04:20:00,26.3,23.5,30.30,NNW,327,3.0,4.0,89,0.00,,,0.00,0,Wunderground v.1.15,2013-01-06 12:20:00,
2013-01-06 04:30:00,26.5,23.7,30.29,NW,325,4.0,4.0,89,0.00,,,0.00,0,Wunderground v.1.15,2013-01-06 12:30:00,
2013-01-06 04:35:00,26.5,23.7,30.29,NW,324,3.0,4.0,89,0.00,,,0.00,0,Wunderground v.1.15,2013-01-06 12:35:00,
2013-01-06 04:40:00,26.6,23.8,30.28,NW,322,1.0,1.0,89,0.00,,,0.00,0,Wunderground v.1.15,2013-01-06 12:40:00,
2013-01-06 04:45:00,26.7,23.9,30.28,NW,311,1.0,1.0,89,0.00,,,0.00,0,Wunderground v.1.15,2013-01-06 12:45:00,
2013-01-06 04:50:00,27.0,23.9,30.28,WNW,300,1.0,1.0,88,0.00,,,0.00,0,Wunderground v.1.15,2013-01-06 12:50:00,
2013-01-06 04:55:00,27.3,24.2,30.28,WNW,299,1.0,1.0,88,0.00,,,0.00,0,Wunderground v.1.15,2013-01-06 12:55:00,
2013-01-06 05:00:00,27.6,24.5,30.28,WNW,301,2.0,4.0,88,0.00,,,0.00,0,Wunderground v.1.15,2013-01-06 13:00:00,
2013-01-06 05:10:00,27.9,24.5,30.27,WNW,295,4.0,4.0,87,0.00,,,0.00,0,Wunderground v.1.15,2013-01-06 13:10:00,
2013-01-06 05:15:00,27.9,24.3,30.27,WNW,296,3.0,4.0,86,0.00,,,0.00,0,Wunderground v.1.15,2013-01-06 13:15:00,
2013-01-06 05:20:00,27.7,24.1,30.27,WNW,300,3.0,6.0,86,0.00,,,0.00,0,Wunderground v.1.15,2013-01-06 13:20:00,
2013-01-06 05:25:00,27.5,23.9,30.27,WNW,298,4.0,6.0,86,0.00,,,0.00,0,Wunderground v.1.15,2013-01-06 13:25:00,
2013-01-06 05:35:00,27.2,23.6,30.27,WNW,300,1.0,4.0,86,0.00,,,0.00,0,Wunderground v.1.15,2013-01-06 13:35:00,
2013-01-06 05:40:00,27.0,23.4,30.27,WNW,302,2.0,2.0,86,0.00,,,0.00,0,Wunderground v.1.15,2013-01-06 13:40:00,
2013-01-06 05:45:00,26.9,23.3,30.27,NW,304,4.0,6.0,86,0.00,,,0.00,0,Wunderground v.1.15,2013-01-06 13:45:00,
2013-01-06 05:50:00,26.8,23.2,30.27,WNW,298,5.0,6.0,86,0.00,,,0.00,0,Wunderground v.1.15,2013-01-06 13:50:00,
2013-01-06 05:55:00,26.9,23.3,30.27,WNW,301,6.0,6.0,86,0.00,,,0.00,0,Wunderground v.1.15,2013-01-06 13:55:00,
2013-01-06 06:00:00,26.9,23.3,30.27,WNW,296,5.0,5.0,86,0.00,,,0.00,0,Wunderground v.1.15,2013-01-06 14:00:00,
2013-01-06 06:10:00,27.3,23.7,30.28,WNW,300,3.0,4.0,86,0.00,,,0.00,0,Wunderground v.1.15,2013-01-06 14:10:00,
2013-01-06 06:15:00,27.4,23.5,30.28,NW,312,3.0,5.0,85,0.00,,,0.00,0,Wunderground v.1.15,2013-01-06 14:15:00,
2013-01-06 06:20:00,27.3,23.4,30.28,WNW,298,4.0,5.0,85,0.00,,,0.00,0,Wunderground v.1.15,2013-01-06 14:20:00,
2013-01-06 06:25:00,27.2,23.3,30.28,NW,306,4.0,5.0,85,0.00,,,0.00,0,Wunderground v.1.15,2013-01-06 14:25:00,
2013-01-06 06:30:00,26.9,23.0,30.29,NW,306,3.0,3.0,85,0.00,,,0.00,0,Wunderground v.1.15,2013-01-06 14:30:00,
2013-01-06 06:40:00,26.6,22.7,30.29,NW,311,4.0,4.0,85,0.00,,,0.00,0,Wunderground v.1.15,2013-01-06 14:40:00,
2013-01-06 06:45:00,26.5,22.9,30.29,NW,313,4.0,4.0,86,0.00,,,0.00,0,Wunderground v.1.15,2013-01-06 14:45:00,
2013-01-06 06:50:00,26.3,22.7,30.29,NW,315,4.0,4.0,86,0.00,,,0.00,0,Wunderground v.1.15,2013-01-06 14:50:00,
2013-01-06 06:55:00,26.1,22.2,30.30,NW,315,3.0,4.0,85,0.00,,,0.00,0,Wunderground v.1.15,2013-01-06 14:55:00,
2013-01-06 07:00:00,26.0,22.4,30.30,NW,317,1.0,1.0,86,0.00,,,0.00,0,Wunderground v.1.15,2013-01-06 15:00:00,
2013-01-06 07:10:00,25.7,22.4,30.30,NW,319,0.0,0.0,87,0.00,,,0.00,0,Wunderground v.1.15,2013-01-06 15:10:00,
2013-01-06 07:15:00,25.6,22.3,30.31,NW,319,0.0,0.0,87,0.00,,,0.00,0,Wunderground v.1.15,2013-01-06 15:15:00,
2013-01-06 07:20:00,25.6,22.3,30.31,NW,321,0.0,0.0,87,0.00,,,0.00,0,Wunderground v.1.15,2013-01-06 15:20:00,
2013-01-06 07:25:00,25.5,22.2,30.31,NW,322,1.0,3.0,87,0.00,,,0.00,0,Wunderground v.1.15,2013-01-06 15:25:00,
2013-01-06 07:30:00,25.3,22.0,30.30,NW,317,3.0,3.0,87,0.00,,,0.00,0,Wunderground v.1.15,2013-01-06 15:30:00,
2013-01-06 07:35:00,25.0,21.7,30.30,NW,317,3.0,3.0,87,0.00,,,0.00,0,Wunderground v.1.15,2013-01-06 15:35:00,
2013-01-06 07:45:00,24.7,21.4,30.31,NW,317,1.0,2.0,87,0.00,,,0.00,7,Wunderground v.1.15,2013-01-06 15:45:00,
2013-01-06 07:50:00,24.6,21.6,30.31,NW,317,1.0,4.0,88,0.00,,,0.00,9,Wunderground v.1.15,2013-01-06 15:50:00,
2013-01-06 07:55:00,24.5,21.5,30.30,NW,317,3.0,4.0,88,0.00,,,0.00,11,Wunderground v.1.15,2013-01-06 15:55:00,
2013-01-06 08:00:00,24.4,21.4,30.31,NW,317,4.0,4.0,88,0.00,,,0.00,14,Wunderground v.1.15,2013-01-06 16:00:00,
2013-01-06 08:10:00,24.2,21.2,30.31,NW,317,1.0,1.0,88,0.00,,,0.00,19,Wunderground v.1.15,2013-01-06 16:10:00,
2013-01-06 08:20:00,23.9,20.9,30.31,NW,317,0.0,0.0,88,0.00,,,0.00,33,Wunderground v.1.15,2013-01-06 16:20:00,
2013-01-06 08:25:00,23.8,20.8,30.31,NW,317,0.0,0.0,88,0.00,,,0.00,42,Wunderground v.1.15,2013-01-06 16:25:00,
2013-01-06 08:30:00,23.7,20.7,30.31,NW,306,1.0,3.0,88,0.00,,,0.00,74,Wunderground v.1.15,2013-01-06 16:30:00,
2013-01-06 08:35:00,23.7,20.9,30.31,WNW,300,2.0,3.0,89,0.00,,,0.00,40,Wunderground v.1.15,2013-01-06 16:35:00,
2013-01-06 08:40:00,24.0,21.5,30.31,NW,304,2.0,2.0,90,0.00,,,0.00,137,Wunderground v.1.15,2013-01-06 16:40:00,
2013-01-06 08:50:00,24.3,21.5,30.31,NW,304,0.0,0.0,89,0.00,,,0.00,88,Wunderground v.1.15,2013-01-06 16:50:00,
2013-01-06 08:55:00,24.4,21.6,30.31,NW,304,0.0,0.0,89,0.00,,,0.00,188,Wunderground v.1.15,2013-01-06 16:55:00,
2013-01-06 09:00:00,24.5,21.7,30.31,NW,305,1.0,3.0,89,0.00,,,0.00,211,Wunderground v.1.15,2013-01-06 17:00:00,
2013-01-06 09:10:00,24.9,21.8,30.32,NW,305,1.0,4.0,88,0.00,,,0.00,237,Wunderground v.1.15,2013-01-06 17:10:00,
2013-01-06 09:15:00,25.1,22.0,30.32,NW,306,1.0,4.0,88,0.00,,,0.00,248,Wunderground v.1.15,2013-01-06 17:15:00,
2013-01-06 09:25:00,25.9,22.6,30.31,WNW,303,2.0,2.0,87,0.00,,,0.00,269,Wunderground v.1.15,2013-01-06 17:25:00,
2013-01-06 09:30:00,26.3,22.7,30.31,WNW,303,1.0,1.0,86,0.00,,,0.00,279,Wunderground v.1.15,2013-01-06 17:30:00,
2013-01-06 09:35:00,26.8,23.2,30.32,NW,304,1.0,1.0,86,0.00,,,0.00,287,Wunderground v.1.15,2013-01-06 17:35:00,
2013-01-06 09:40:00,27.5,24.1,30.32,WNW,301,1.0,1.0,87,0.00,,,0.00,297,Wunderground v.1.15,2013-01-06 17:40:00,
2013-01-06 09:45:00,28.4,24.7,30.32,WNW,297,1.0,5.0,86,0.00,,,0.00,318,Wunderground v.1.15,2013-01-06 17:45:00,
2013-01-06 09:55:00,30.0,25.8,30.32,WNW,299,3.0,6.0,84,0.00,,,0.00,323,Wunderground v.1.15,2013-01-06 17:55:00,
2013-01-06 10:00:00,30.4,25.9,30.32,NW,305,4.0,4.0,83,0.00,,,0.00,334,Wunderground v.1.15,2013-01-06 18:00:00,
2013-01-06 10:10:00,31.6,26.7,30.32,WNW,296,3.0,3.0,82,0.00,,,0.00,359,Wunderground v.1.15,2013-01-06 18:10:00,
2013-01-06 10:15:00,32.3,27.1,30.32,WNW,291,3.0,3.0,81,0.00,,,0.00,371,Wunderground v.1.15,2013-01-06 18:15:00,
2013-01-06 10:20:00,32.9,27.1,30.32,WNW,300,2.0,6.0,79,0.00,,,0.00,396,Wunderground v.1.15,2013-01-06 18:20:00,
2013-01-06 10:30:00,33.8,27.4,30.31,West,271,1.0,1.0,77,0.00,,,0.00,313,Wunderground v.1.15,2013-01-06 18:30:00,
2013-01-06 10:35:00,33.9,27.1,30.31,WSW,254,0.0,1.0,76,0.00,,,0.00,223,Wunderground v.1.15,2013-01-06 18:35:00,
2013-01-06 10:40:00,33.9,27.1,30.31,WNW,289,0.0,0.0,76,0.00,,,0.00,241,Wunderground v.1.15,2013-01-06 18:40:00,
2013-01-06 10:45:00,33.9,27.1,30.31,West,273,1.0,1.0,76,0.00,,,0.00,348,Wunderground v.1.15,2013-01-06 18:45:00,
2013-01-06 10:50:00,34.1,27.3,30.30,West,269,2.0,3.0,76,0.00,,,0.01,411,Wunderground v.1.15,2013-01-06 18:50:00,
2013-01-06 11:00:00,34.8,27.7,30.30,West,273,1.0,1.0,75,0.00,,,0.01,424,Wunderground v.1.15,2013-01-06 19:00:00,
2013-01-06 11:10:00,35.5,28.0,30.30,WNW,292,2.0,3.0,74,0.00,,,0.01,445,Wunderground v.1.15,2013-01-06 19:10:00,
2013-01-06 11:15:00,35.8,28.0,30.29,West,261,2.0,3.0,73,0.00,,,0.01,450,Wunderground v.1.15,2013-01-06 19:15:00,
2013-01-06 11:20:00,36.0,28.2,30.30,WNW,291,3.0,3.0,73,0.00,,,0.01,454,Wunderground v.1.15,2013-01-06 19:20:00,
2013-01-06 11:25:00,36.2,28.4,30.29,NW,304,3.0,4.0,73,0.00,,,0.01,459,Wunderground v.1.15,2013-01-06 19:25:00,
2013-01-06 11:30:00,36.5,28.3,30.29,West,271,2.0,3.0,72,0.00,,,0.01,466,Wunderground v.1.15,2013-01-06 19:30:00,
2013-01-06 11:35:00,36.7,28.5,30.29,West,266,1.0,3.0,72,0.00,,,0.01,471,Wunderground v.1.15,2013-01-06 19:35:00,
2013-01-06 11:40:00,37.0,28.5,30.29,WSW,253,1.0,4.0,71,0.00,,,0.01,457,Wunderground v.1.15,2013-01-06 19:40:00,
2013-01-06 11:45:00,37.1,28.6,30.29,WNW,286,2.0,5.0,71,0.00,,,0.01,473,Wunderground v.1.15,2013-01-06 19:45:00,
2013-01-06 11:50:00,36.9,28.0,30.29,WNW,290,5.0,5.0,70,0.00,,,0.01,459,Wunderground v.1.15,2013-01-06 19:50:00,
2013-01-06 11:55:00,36.8,28.3,30.29,WNW,290,6.0,6.0,71,0.00,,,0.01,483,Wunderground v.1.15,2013-01-06 19:55:00,
2013-01-06 12:00:00,36.8,28.3,30.28,NW,304,4.0,4.0,71,0.00,,,0.01,466,Wunderground v.1.15,2013-01-06 20:00:00,
2013-01-06 12:05:00,37.0,28.5,30.28,WNW,291,4.0,5.0,71,0.00,,,0.01,438,Wunderground v.1.15,2013-01-06 20:05:00,
2013-01-06 12:15:00,37.2,28.7,30.27,WNW,291,5.0,5.0,71,0.00,,,0.01,422,Wunderground v.1.15,2013-01-06 20:15:00,
2013-01-06 12:25:00,37.8,28.9,30.26,WSW,250,0.0,2.0,70,0.00,,,0.01,455,Wunderground v.1.15,2013-01-06 20:25:00,
2013-01-06 12:30:00,38.1,29.2,30.26,West,268,0.0,0.0,70,0.00,,,0.01,483,Wunderground v.1.15,2013-01-06 20:30:00,
2013-01-06 12:35:00,38.4,29.1,30.26,WNW,293,0.0,1.0,69,0.00,,,0.01,461,Wunderground v.1.15,2013-01-06 20:35:00,
2013-01-06 12:45:00,39.2,29.5,30.26,West,275,1.0,1.0,68,0.00,,,0.01,448,Wunderground v.1.15,2013-01-06 20:45:00,
2013-01-06 12:50:00,39.5,29.8,30.25,West,265,1.0,1.0,68,0.00,,,0.01,366,Wunderground v.1.15,2013-01-06 20:50:00,
2013-01-06 12:55:00,39.6,29.5,30.25,WNW,292,1.0,1.0,67,0.00,,,0.02,308,Wunderground v.1.15,2013-01-06 20:55:00,
2013-01-06 13:00:00,39.7,30.0,30.24,WNW,292,1.0,4.0,68,0.00,,,0.02,415,Wunderground v.1.15,2013-01-06 21:00:00,
2013-01-06 13:10:00,40.0,30.3,30.23,West,274,1.0,6.0,68,0.00,,,0.02,452,Wunderground v.1.15,2013-01-06 21:10:00,
2013-01-06 13:15:00,40.1,30.4,30.23,West,267,1.0,6.0,68,0.00,,,0.02,443,Wunderground v.1.15,2013-01-06 21:15:00,
2013-01-06 13:20:00,40.2,30.5,30.23,West,267,1.0,2.0,68,0.00,,,0.02,434,Wunderground v.1.15,2013-01-06 21:20:00,
2013-01-06 13:25:00,40.3,30.6,30.22,WNW,288,1.0,3.0,68,0.00,,,0.02,427,Wunderground v.1.15,2013-01-06 21:25:00,
2013-01-06 13:30:00,40.4,30.3,30.23,WNW,296,2.0,6.0,67,0.00,,,0.02,420,Wunderground v.1.15,2013-01-06 21:30:00,
2013-01-06 13:35:00,40.4,29.9,30.23,WNW,300,4.0,6.0,66,0.00,,,0.02,415,Wunderground v.1.15,2013-01-06 21:35:00,
2013-01-06 13:40:00,40.4,30.3,30.23,WNW,296,5.0,5.0,67,0.00,,,0.02,408,Wunderground v.1.15,2013-01-06 21:40:00,
2013-01-06 13:50:00,40.8,30.7,30.23,WNW,294,0.0,0.0,67,0.00,,,0.02,399,Wunderground v.1.15,2013-01-06 21:50:00,
2013-01-06 13:55:00,41.0,30.5,30.22,West,267,0.0,0.0,66,0.00,,,0.02,381,Wunderground v.1.15,2013-01-06 21:55:00,
2013-01-06 14:00:00,41.2,30.7,30.23,West,276,1.0,1.0,66,0.00,,,0.02,350,Wunderground v.1.15,2013-01-06 22:00:00,
2013-01-06 14:10:00,41.4,30.5,30.22,WNW,302,3.0,6.0,65,0.00,,,0.03,366,Wunderground v.1.15,2013-01-06 22:10:00,
2013-01-06 14:15:00,41.2,29.9,30.22,WNW,295,4.0,6.0,64,0.00,,,0.03,345,Wunderground v.1.15,2013-01-06 22:15:00,
2013-01-06 14:25:00,40.9,30.0,30.22,WNW,287,1.0,3.0,65,0.00,,,0.03,329,Wunderground v.1.15,2013-01-06 22:25:00,
2013-01-06 14:30:00,41.1,30.2,30.22,WNW,288,0.0,2.0,65,0.00,,,0.03,316,Wunderground v.1.15,2013-01-06 22:30:00,
2013-01-06 14:35:00,41.4,30.1,30.22,WNW,288,0.0,2.0,64,0.00,,,0.03,306,Wunderground v.1.15,2013-01-06 22:35:00,
2013-01-06 14:40:00,41.6,30.7,30.22,WNW,288,0.0,0.0,65,0.00,,,0.03,288,Wunderground v.1.15,2013-01-06 22:40:00,
2013-01-06 14:45:00,41.8,30.5,30.22,WNW,288,0.0,0.0,64,0.00,,,0.03,278,Wunderground v.1.15,2013-01-06 22:45:00,
2013-01-06 14:55:00,41.9,30.6,30.22,WNW,288,0.0,0.0,64,0.00,,,0.03,257,Wunderground v.1.15,2013-01-06 22:55:00,
2013-01-06 15:00:00,41.8,30.1,30.22,WNW,286,0.0,0.0,63,0.00,,,0.03,234,Wunderground v.1.15,2013-01-06 23:00:00,
2013-01-06 15:10:00,41.7,30.4,30.22,WNW,287,0.0,0.0,64,0.00,,,0.03,220,Wunderground v.1.15,2013-01-06 23:10:00,
2013-01-06 15:15:00,41.6,30.3,30.22,WNW,284,0.0,0.0,64,0.00,,,0.03,192,Wunderground v.1.15,2013-01-06 23:15:00,
2013-01-06 15:20:00,41.5,30.2,30.22,WNW,283,0.0,0.0,64,0.00,,,0.03,155,Wunderground v.1.15,2013-01-06 23:20:00,
2013-01-06 15:30:00,41.4,30.5,30.22,WNW,282,0.0,0.0,65,0.00,,,0.03,127,Wunderground v.1.15,2013-01-06 23:30:00,
2013-01-06 15:35:00,41.4,30.9,30.22,WNW,282,0.0,0.0,66,0.00,,,0.03,104,Wunderground v.1.15,2013-01-06 23:35:00,
2013-01-06 15:40:00,41.4,30.5,30.21,WNW,283,0.0,0.0,65,0.00,,,0.03,63,Wunderground v.1.15,2013-01-06 23:40:00,
2013-01-06 15:45:00,41.1,30.2,30.21,WNW,282,0.0,0.0,65,0.00,,,0.03,53,Wunderground v.1.15,2013-01-06 23:45:00,
2013-01-06 15:50:00,40.8,29.9,30.21,WNW,282,0.0,0.0,65,0.00,,,0.03,44,Wunderground v.1.15,2013-01-06 23:50:00,
2013-01-06 16:00:00,40.2,29.7,30.21,WNW,282,0.0,0.0,66,0.00,,,0.03,35,Wunderground v.1.15,2013-01-07 00:00:00,
2013-01-06 16:10:00,39.5,29.4,30.21,WNW,282,0.0,0.0,67,0.00,,,0.04,25,Wunderground v.1.15,2013-01-07 00:10:00,
2013-01-06 16:15:00,39.2,29.2,30.21,WNW,282,0.0,0.0,67,0.00,,,0.04,21,Wunderground v.1.15,2013-01-07 00:15:00,
2013-01-06 16:20:00,38.9,29.2,30.21,WNW,282,0.0,0.0,68,0.00,,,0.04,16,Wunderground v.1.15,2013-01-07 00:20:00,
2013-01-06 16:25:00,38.6,29.3,30.20,WNW,282,0.0,0.0,69,0.00,,,0.04,12,Wunderground v.1.15,2013-01-07 00:25:00,
2013-01-06 16:35:00,38.5,29.2,30.20,WNW,282,0.0,0.0,69,0.00,,,0.04,7,Wunderground v.1.15,2013-01-07 00:35:00,
2013-01-06 16:40:00,38.1,29.2,30.20,WNW,282,0.0,0.0,70,0.00,,,0.04,5,Wunderground v.1.15,2013-01-07 00:40:00,
2013-01-06 16:45:00,37.9,29.0,30.20,WNW,282,0.0,0.0,70,0.00,,,0.04,0,Wunderground v.1.15,2013-01-07 00:45:00,
2013-01-06 16:50:00,37.6,29.0,30.20,WNW,282,0.0,0.0,71,0.00,,,0.04,0,Wunderground v.1.15,2013-01-07 00:50:00,
2013-01-06 16:55:00,37.5,28.9,30.21,WNW,282,0.0,0.0,71,0.00,,,0.04,0,Wunderground v.1.15,2013-01-07 00:55:00,
2013-01-06 17:00:00,37.2,29.0,30.20,WNW,282,0.0,0.0,72,0.00,,,0.04,0,Wunderground v.1.15,2013-01-07 01:00:00,
2013-01-06 17:10:00,36.1,27.6,30.21,WNW,282,0.0,0.0,71,0.00,,,0.04,0,Wunderground v.1.15,2013-01-07 01:10:00,
2013-01-06 17:15:00,35.4,27.6,30.21,WNW,282,0.0,0.0,73,0.00,,,0.04,0,Wunderground v.1.15,2013-01-07 01:15:00,
2013-01-06 17:20:00,34.9,27.8,30.21,WNW,282,0.0,0.0,75,0.00,,,0.04,0,Wunderground v.1.15,2013-01-07 01:20:00,
2013-01-06 17:25:00,34.5,27.7,30.21,WNW,282,0.0,0.0,76,0.00,,,0.04,0,Wunderground v.1.15,2013-01-07 01:25:00,
2013-01-06 17:30:00,34.3,27.2,30.21,WNW,282,0.0,0.0,75,0.00,,,0.04,0,Wunderground v.1.15,2013-01-07 01:30:00,
2013-01-06 17:40:00,33.9,27.4,30.22,WNW,282,0.0,0.0,77,0.00,,,0.04,0,Wunderground v.1.15,2013-01-07 01:40:00,
2013-01-06 17:45:00,33.8,27.4,30.21,WNW,282,0.0,0.0,77,0.00,,,0.04,0,Wunderground v.1.15,2013-01-07 01:45:00,
2013-01-06 17:50:00,33.8,27.7,30.21,WNW,282,0.0,0.0,78,0.00,,,0.04,0,Wunderground v.1.15,2013-01-07 01:50:00,
2013-01-06 17:55:00,33.7,27.6,30.22,WNW,282,0.0,0.0,78,0.00,,,0.04,0,Wunderground v.1.15,2013-01-07 01:55:00,
2013-01-06 18:00:00,33.5,27.4,30.22,WNW,282,0.0,0.0,78,0.00,,,0.04,0,Wunderground v.1.15,2013-01-07 02:00:00,
2013-01-06 18:10:00,33.2,27.4,30.22,WNW,282,0.0,0.0,79,0.00,,,0.04,0,Wunderground v.1.15,2013-01-07 02:10:00,
2013-01-06 18:15:00,33.1,27.3,30.22,WNW,282,0.0,0.0,79,0.00,,,0.04,0,Wunderground v.1.15,2013-01-07 02:15:00,
2013-01-06 18:20:00,33.0,27.2,30.22,WNW,282,0.0,0.0,79,0.00,,,0.05,0,Wunderground v.1.15,2013-01-07 02:20:00,
2013-01-06 18:25:00,32.8,27.0,30.22,WNW,282,0.0,0.0,79,0.00,,,0.05,0,Wunderground v.1.15,2013-01-07 02:25:00,
2013-01-06 18:30:00,32.7,27.2,30.22,WNW,282,0.0,0.0,80,0.00,,,0.05,0,Wunderground v.1.15,2013-01-07 02:30:00,
2013-01-06 18:35:00,32.7,26.9,30.22,WNW,282,0.0,0.0,79,0.00,,,0.05,0,Wunderground v.1.15,2013-01-07 02:35:00,
2013-01-06 18:40:00,32.6,27.1,30.22,WNW,282,0.0,0.0,80,0.00,,,0.05,0,Wunderground v.1.15,2013-01-07 02:40:00,
2013-01-06 18:45:00,32.5,27.0,30.22,WNW,282,0.0,0.0,80,0.00,,,0.05,0,Wunderground v.1.15,2013-01-07 02:45:00,
2013-01-06 18:50:00,32.3,26.8,30.22,WNW,282,0.0,0.0,80,0.00,,,0.05,0,Wunderground v.1.15,2013-01-07 02:50:00,
2013-01-06 18:55:00,32.2,26.7,30.22,WNW,282,0.0,0.0,80,0.00,,,0.05,0,Wunderground v.1.15,2013-01-07 02:55:00,
2013-01-06 19:00:00,32.0,26.8,30.21,WNW,282,1.0,4.0,81,0.00,,,0.05,0,Wunderground v.1.15,2013-01-07 03:00:00,
2013-01-06 19:10:00,32.1,27.2,30.20,WNW,295,5.0,6.0,82,0.00,,,0.05,0,Wunderground v.1.15,2013-01-07 03:10:00,
2013-01-06 19:15:00,32.4,27.2,30.19,WNW,288,5.0,6.0,81,0.00,,,0.05,0,Wunderground v.1.15,2013-01-07 03:15:00,
2013-01-06 19:20:00,32.9,27.7,30.19,SW,227,4.0,4.0,81,0.00,,,0.05,0,Wunderground v.1.15,2013-01-07 03:20:00,
2013-01-06 19:25:00,33.4,27.9,30.19,West,262,3.0,4.0,80,0.00,,,0.05,0,Wunderground v.1.15,2013-01-07 03:25:00,
2013-01-06 19:30:00,33.7,27.9,30.19,WNW,284,2.0,6.0,79,0.00,,,0.05,0,Wunderground v.1.15,2013-01-07 03:30:00,
2013-01-06 19:35:00,33.9,27.8,30.18,West,268,2.0,6.0,78,0.00,,,0.05,0,Wunderground v.1.15,2013-01-07 03:35:00,
2013-01-06 19:45:00,34.4,27.9,30.19,WNW,287,3.0,6.0,77,0.00,,,0.05,0,Wunderground v.1.15,2013-01-07 03:45:00,
2013-01-06 19:50:00,34.4,27.9,30.19,NW,315,5.0,5.0,77,0.00,,,0.05,0,Wunderground v.1.15,2013-01-07 03:50:00,
2013-01-06 19:55:00,34.2,27.7,30.19,WNW,301,6.0,6.0,77,0.00,,,0.05,0,Wunderground v.1.15,2013-01-07 03:55:00,
2013-01-06 20:00:00,33.9,27.4,30.19,NW,315,6.0,6.0,77,0.00,,,0.05,0,Wunderground v.1.15,2013-01-07 04:00:00,
2013-01-06 20:10:00,33.6,27.5,30.20,NW,321,7.0,9.0,78,0.00,,,0.05,0,Wunderground v.1.15,2013-01-07 04:10:00,
2013-01-06 20:20:00,33.5,27.4,30.20,NW,305,6.0,6.0,78,0.00,,,0.05,0,Wunderground v.1.15,2013-01-07 04:20:00,
2013-01-06 20:25:00,33.5,27.4,30.20,NW,309,5.0,6.0,78,0.00,,,0.05,0,Wunderground v.1.15,2013-01-07 04:25:00,
2013-01-06 20:30:00,33.5,27.4,30.20,NW,304,5.0,5.0,78,0.00,,,0.05,0,Wunderground v.1.15,2013-01-07 04:30:00,
2013-01-06 20:35:00,33.7,27.6,30.20,WNW,296,5.0,5.0,78,0.00,,,0.05,0,Wunderground v.1.15,2013-01-07 04:35:00,
2013-01-06 20:40:00,33.8,27.7,30.21,WNW,290,5.0,5.0,78,0.00,,,0.05,0,Wunderground v.1.15,2013-01-07 04:40:00,
2013-01-06 20:50:00,33.9,27.8,30.20,NW,315,5.0,6.0,78,0.00,,,0.05,0,Wunderground v.1.15,2013-01-07 04:50:00,
2013-01-06 20:55:00,33.9,27.8,30.20,NW,315,5.0,6.0,78,0.00,,,0.05,0,Wunderground v.1.15,2013-01-07 04:55:00,
2013-01-06 21:00:00,33.8,27.7,30.20,NW,317,5.0,5.0,78,0.00,,,0.05,0,Wunderground v.1.15,2013-01-07 05:00:00,
2013-01-06 21:10:00,33.7,27.9,30.20,NW,311,5.0,6.0,79,0.00,,,0.05,0,Wunderground v.1.15,2013-01-07 05:10:00,
2013-01-06 21:15:00,33.8,27.7,30.21,NW,313,6.0,7.0,78,0.00,,,0.05,0,Wunderground v.1.15,2013-01-07 05:15:00,
2013-01-06 21:20:00,33.9,27.8,30.20,NW,307,6.0,6.0,78,0.00,,,0.05,0,Wunderground v.1.15,2013-01-07 05:20:00,
2013-01-06 21:25:00,34.0,27.9,30.20,WNW,292,6.0,6.0,78,0.00,,,0.05,0,Wunderground v.1.15,2013-01-07 05:25:00,
2013-01-06 21:30:00,34.1,28.0,30.20,WNW,303,6.0,6.0,78,0.00,,,0.05,0,Wunderground v.1.15,2013-01-07 05:30:00,
2013-01-06 21:35:00,34.1,28.0,30.19,WNW,295,5.0,6.0,78,0.00,,,0.05,0,Wunderground v.1.15,2013-01-07 05:35:00,
2013-01-06 21:40:00,34.2,28.1,30.19,SSW,196,4.0,4.0,78,0.00,,,0.05,0,Wunderground v.1.15,2013-01-07 05:40:00,
2013-01-06 21:45:00,34.5,28.0,30.19,West,266,2.0,4.0,77,0.00,,,0.05,0,Wunderground v.1.15,2013-01-07 05:45:00,
2013-01-06 21:50:00,34.7,28.2,30.19,West,259,1.0,3.0,77,0.00,,,0.05,0,Wunderground v.1.15,2013-01-07 05:50:00,
2013-01-06 22:00:00,35.0,28.2,30.19,West,281,2.0,2.0,76,0.00,,,0.05,0,Wunderground v.1.15,2013-01-07 06:00:00,
2013-01-06 22:10:00,35.3,28.2,30.18,WNW,289,3.0,3.0,75,0.00,,,0.05,0,Wunderground v.1.15,2013-01-07 06:10:00,
2013-01-06 22:15:00,35.4,28.3,30.18,WNW,296,3.0,6.0,75,0.00,,,0.05,0,Wunderground v.1.15,2013-01-07 06:15:00,
2013-01-06 22:20:00,35.6,28.5,30.18,WNW,294,4.0,4.0,75,0.00,,,0.05,0,Wunderground v.1.15,2013-01-07 06:20:00,
2013-01-06 22:25:00,35.6,28.5,30.18,NW,314,5.0,7.0,75,0.00,,,0.05,0,Wunderground v.1.15,2013-01-07 06:25:00,
2013-01-06 22:30:00,35.6,28.1,30.18,WNW,298,5.0,5.0,74,0.00,,,0.05,0,Wunderground v.1.15,2013-01-07 06:30:00,
2013-01-06 22:35:00,35.5,28.0,30.19,WNW,302,5.0,5.0,74,0.00,,,0.05,0,Wunderground v.1.15,2013-01-07 06:35:00,
2013-01-06 22:45:00,35.5,28.0,30.18,NW,304,4.0,5.0,74,0.00,,,0.05,0,Wunderground v.1.15,2013-01-07 06:45:00,
2013-01-06 22:50:00,35.4,27.9,30.18,WNW,302,4.0,4.0,74,0.00,,,0.05,0,Wunderground v.1.15,2013-01-07 06:50:00,
2013-01-06 22:55:00,35.4,27.9,30.18,WNW,298,4.0,4.0,74,0.00,,,0.05,0,Wunderground v.1.15,2013-01-07 06:55:00,
2013-01-06 23:00:00,35.3,28.2,30.17,NW,308,4.0,4.0,75,0.00,,,0.05,0,Wunderground v.1.15,2013-01-07 07:00:00,
2013-01-06 23:10:00,35.1,28.0,30.18,NW,309,6.0,7.0,75,0.00,,,0.05,0,Wunderground v.1.15,2013-01-07 07:10:00,
2013-01-06 23:15:00,35.0,27.9,30.17,WNW,290,6.0,7.0,75,0.00,,,0.05,0,Wunderground v.1.15,2013-01-07 07:15:00,
2013-01-06 23:20:00,35.0,27.9,30.17,WNW,297,6.0,6.0,75,0.00,,,0.05,0,Wunderground v.1.15,2013-01-07 07:20:00,
2013-01-06 23:25:00,34.9,27.8,30.17,WNW,292,5.0,6.0,75,0.00,,,0.05,0,Wunderground v.1.15,2013-01-07 07:25:00,
2013-01-06 23:35:00,34.9,27.8,30.17,WNW,295,4.0,7.0,75,0.00,,,0.05,0,Wunderground v.1.15,2013-01-07 07:35:00,
2013-01-06 23:40:00,35.0,27.9,30.16,WNW,287,4.0,4.0,75,0.00,,,0.05,0,Wunderground v.1.15,2013-01-07 07:40:00,
2013-01-06 23:45:00,35.2,27.7,30.16,SW,236,2.0,4.0,74,0.00,,,0.05,0,Wunderground v.1.15,2013-01-07 07:45:00,
2013-01-06 23:50:00,35.3,27.5,30.15,WSW,242,2.0,2.0,73,0.00,,,0.05,0,Wunderground v.1.15,2013-01-07 07:50:00,
2013-01-06 23:55:00,35.4,27.3,30.16,WNW,283,2.0,2.0,72,0.00,,,0.05,0,Wunderground v.1.15,2013-01-07 07:55:00,